sensor_id;sensor_type;location;lat;lon;timestamp;temperature;humidity
68439;SHT31;55421;51.600;5.718;2023-05-19T00:01:50;11.25;61.56
68439;SHT31;55421;51.600;5.718;2023-05-19T00:04:18;11.22;61.61
68439;SHT31;55421;51.600;5.718;2023-05-19T00:06:47;11.19;61.72
68439;SHT31;55421;51.600;5.718;2023-05-19T00:09:16;11.15;61.84
68439;SHT31;55421;51.600;5.718;2023-05-19T00:11:43;11.11;61.94
68439;SHT31;55421;51.600;5.718;2023-05-19T00:14:11;11.09;62.08
68439;SHT31;55421;51.600;5.718;2023-05-19T00:16:38;11.05;62.24
68439;SHT31;55421;51.600;5.718;2023-05-19T00:19:05;11.03;62.34
68439;SHT31;55421;51.600;5.718;2023-05-19T00:21:35;11.02;62.40
68439;SHT31;55421;51.600;5.718;2023-05-19T00:24:05;10.99;62.50
68439;SHT31;55421;51.600;5.718;2023-05-19T00:26:32;10.96;62.62
68439;SHT31;55421;51.600;5.718;2023-05-19T00:28:59;10.95;62.75
68439;SHT31;55421;51.600;5.718;2023-05-19T00:31:26;10.93;62.82
68439;SHT31;55421;51.600;5.718;2023-05-19T00:33:52;10.91;62.92
68439;SHT31;55421;51.600;5.718;2023-05-19T00:36:19;10.89;62.99
68439;SHT31;55421;51.600;5.718;2023-05-19T00:38:45;10.84;63.10
68439;SHT31;55421;51.600;5.718;2023-05-19T00:41:12;10.80;63.16
68439;SHT31;55421;51.600;5.718;2023-05-19T00:43:38;10.78;63.32
68439;SHT31;55421;51.600;5.718;2023-05-19T00:46:05;10.76;63.44
68439;SHT31;55421;51.600;5.718;2023-05-19T00:48:32;10.75;63.55
68439;SHT31;55421;51.600;5.718;2023-05-19T00:50:59;10.75;63.66
68439;SHT31;55421;51.600;5.718;2023-05-19T00:53:29;10.76;63.73
68439;SHT31;55421;51.600;5.718;2023-05-19T00:55:58;10.76;63.78
68439;SHT31;55421;51.600;5.718;2023-05-19T00:58:26;10.75;63.86
68439;SHT31;55421;51.600;5.718;2023-05-19T01:00:59;10.75;63.93
68439;SHT31;55421;51.600;5.718;2023-05-19T01:03:32;10.73;64.02
68439;SHT31;55421;51.600;5.718;2023-05-19T01:06:01;10.71;64.03
68439;SHT31;55421;51.600;5.718;2023-05-19T01:08:31;10.68;64.10
68439;SHT31;55421;51.600;5.718;2023-05-19T01:11:00;10.65;64.28
68439;SHT31;55421;51.600;5.718;2023-05-19T01:13:26;10.62;64.39
68439;SHT31;55421;51.600;5.718;2023-05-19T01:18:39;10.59;64.60
68439;SHT31;55421;51.600;5.718;2023-05-19T01:30:32;10.51;65.26
68439;SHT31;55421;51.600;5.718;2023-05-19T01:33:10;10.49;65.36
68439;SHT31;55421;51.600;5.718;2023-05-19T01:35:41;10.46;65.51
68439;SHT31;55421;51.600;5.718;2023-05-19T01:38:09;10.41;65.64
68439;SHT31;55421;51.600;5.718;2023-05-19T01:40:39;10.39;65.81
68439;SHT31;55421;51.600;5.718;2023-05-19T01:43:10;10.36;65.95
68439;SHT31;55421;51.600;5.718;2023-05-19T01:45:44;10.34;66.10
68439;SHT31;55421;51.600;5.718;2023-05-19T01:48:12;10.32;66.23
68439;SHT31;55421;51.600;5.718;2023-05-19T01:50:40;10.31;66.34
68439;SHT31;55421;51.600;5.718;2023-05-19T01:53:07;10.31;66.47
68439;SHT31;55421;51.600;5.718;2023-05-19T01:55:35;10.30;66.54
68439;SHT31;55421;51.600;5.718;2023-05-19T02:01:24;10.25;66.75
68439;SHT31;55421;51.600;5.718;2023-05-19T02:04:32;10.22;66.88
68439;SHT31;55421;51.600;5.718;2023-05-19T02:07:36;10.19;66.99
68439;SHT31;55421;51.600;5.718;2023-05-19T02:10:13;10.13;67.14
68439;SHT31;55421;51.600;5.718;2023-05-19T02:12:47;10.11;67.23
68439;SHT31;55421;51.600;5.718;2023-05-19T02:15:20;10.08;67.34
68439;SHT31;55421;51.600;5.718;2023-05-19T02:17:54;10.08;67.46
68439;SHT31;55421;51.600;5.718;2023-05-19T02:20:23;10.06;67.57
68439;SHT31;55421;51.600;5.718;2023-05-19T02:22:49;10.05;67.69
68439;SHT31;55421;51.600;5.718;2023-05-19T02:25:16;10.05;67.77
68439;SHT31;55421;51.600;5.718;2023-05-19T02:27:43;10.05;67.86
68439;SHT31;55421;51.600;5.718;2023-05-19T02:30:09;10.06;67.90
68439;SHT31;55421;51.600;5.718;2023-05-19T02:32:36;10.04;68.02
68439;SHT31;55421;51.600;5.718;2023-05-19T02:35:03;10.03;68.11
68439;SHT31;55421;51.600;5.718;2023-05-19T02:37:30;10.01;68.18
68439;SHT31;55421;51.600;5.718;2023-05-19T02:39:57;9.97;68.31
68439;SHT31;55421;51.600;5.718;2023-05-19T02:42:24;9.94;68.45
68439;SHT31;55421;51.600;5.718;2023-05-19T02:44:51;9.92;68.59
68439;SHT31;55421;51.600;5.718;2023-05-19T02:47:19;9.91;68.74
68439;SHT31;55421;51.600;5.718;2023-05-19T02:49:46;9.89;68.86
68439;SHT31;55421;51.600;5.718;2023-05-19T02:52:12;9.88;68.94
68439;SHT31;55421;51.600;5.718;2023-05-19T02:54:39;9.89;69.10
68439;SHT31;55421;51.600;5.718;2023-05-19T02:57:05;9.88;69.22
68439;SHT31;55421;51.600;5.718;2023-05-19T02:59:32;9.89;69.31
68439;SHT31;55421;51.600;5.718;2023-05-19T03:01:59;9.89;69.39
68439;SHT31;55421;51.600;5.718;2023-05-19T03:04:27;9.89;69.49
68439;SHT31;55421;51.600;5.718;2023-05-19T03:06:55;9.89;69.52
68439;SHT31;55421;51.600;5.718;2023-05-19T03:09:25;9.86;69.60
68439;SHT31;55421;51.600;5.718;2023-05-19T03:11:51;9.82;69.69
68439;SHT31;55421;51.600;5.718;2023-05-19T03:14:18;9.79;69.81
68439;SHT31;55421;51.600;5.718;2023-05-19T03:16:48;9.77;69.94
68439;SHT31;55421;51.600;5.718;2023-05-19T03:19:15;9.74;70.07
68439;SHT31;55421;51.600;5.718;2023-05-19T03:21:43;9.73;70.19
68439;SHT31;55421;51.600;5.718;2023-05-19T03:24:09;9.73;70.31
68439;SHT31;55421;51.600;5.718;2023-05-19T03:26:36;9.74;70.40
68439;SHT31;55421;51.600;5.718;2023-05-19T03:29:02;9.73;70.46
68439;SHT31;55421;51.600;5.718;2023-05-19T03:31:29;9.71;70.53
68439;SHT31;55421;51.600;5.718;2023-05-19T03:33:55;9.69;70.61
68439;SHT31;55421;51.600;5.718;2023-05-19T03:36:25;9.67;70.70
68439;SHT31;55421;51.600;5.718;2023-05-19T03:38:57;9.66;70.75
68439;SHT31;55421;51.600;5.718;2023-05-19T03:41:24;9.65;70.87
68439;SHT31;55421;51.600;5.718;2023-05-19T03:43:51;9.65;70.98
68439;SHT31;55421;51.600;5.718;2023-05-19T03:46:17;9.65;71.01
68439;SHT31;55421;51.600;5.718;2023-05-19T03:48:43;9.69;71.09
68439;SHT31;55421;51.600;5.718;2023-05-19T03:51:10;9.71;71.10
68439;SHT31;55421;51.600;5.718;2023-05-19T03:53:37;9.74;71.12
68439;SHT31;55421;51.600;5.718;2023-05-19T03:56:04;9.74;71.19
68439;SHT31;55421;51.600;5.718;2023-05-19T03:58:32;9.74;71.20
68439;SHT31;55421;51.600;5.718;2023-05-19T04:00:59;9.76;71.25
68439;SHT31;55421;51.600;5.718;2023-05-19T04:03:25;9.82;71.30
68439;SHT31;55421;51.600;5.718;2023-05-19T04:05:53;9.92;71.26
68439;SHT31;55421;51.600;5.718;2023-05-19T04:08:20;10.09;71.13
68439;SHT31;55421;51.600;5.718;2023-05-19T04:10:46;10.28;70.95
68439;SHT31;55421;51.600;5.718;2023-05-19T04:13:12;10.44;70.66
68439;SHT31;55421;51.600;5.718;2023-05-19T04:15:39;10.60;70.42
68439;SHT31;55421;51.600;5.718;2023-05-19T04:18:06;10.76;70.18
68439;SHT31;55421;51.600;5.718;2023-05-19T04:20:32;10.89;69.87
68439;SHT31;55421;51.600;5.718;2023-05-19T04:22:59;10.96;69.64
68439;SHT31;55421;51.600;5.718;2023-05-19T04:25:26;11.09;69.36
68439;SHT31;55421;51.600;5.718;2023-05-19T04:27:53;11.14;69.18
68439;SHT31;55421;51.600;5.718;2023-05-19T04:30:22;11.08;69.18
68439;SHT31;55421;51.600;5.718;2023-05-19T04:32:49;11.21;69.10
68439;SHT31;55421;51.600;5.718;2023-05-19T04:35:18;11.23;68.94
68439;SHT31;55421;51.600;5.718;2023-05-19T04:37:45;11.43;68.79
68439;SHT31;55421;51.600;5.718;2023-05-19T04:40:12;11.65;68.46
68439;SHT31;55421;51.600;5.718;2023-05-19T04:42:39;11.82;68.13
68439;SHT31;55421;51.600;5.718;2023-05-19T04:45:10;11.86;67.93
68439;SHT31;55421;51.600;5.718;2023-05-19T04:47:39;11.72;67.92
68439;SHT31;55421;51.600;5.718;2023-05-19T04:50:06;11.54;68.08
68439;SHT31;55421;51.600;5.718;2023-05-19T04:52:35;11.37;68.24
68439;SHT31;55421;51.600;5.718;2023-05-19T04:55:02;11.25;68.46
68439;SHT31;55421;51.600;5.718;2023-05-19T04:57:29;11.20;68.68
68439;SHT31;55421;51.600;5.718;2023-05-19T04:59:56;11.18;68.85
68439;SHT31;55421;51.600;5.718;2023-05-19T05:02:25;11.21;69.04
68439;SHT31;55421;51.600;5.718;2023-05-19T05:04:54;11.26;69.10
68439;SHT31;55421;51.600;5.718;2023-05-19T05:07:21;11.28;69.09
68439;SHT31;55421;51.600;5.718;2023-05-19T05:09:48;11.28;69.10
68439;SHT31;55421;51.600;5.718;2023-05-19T05:12:16;11.27;69.08
68439;SHT31;55421;51.600;5.718;2023-05-19T05:14:44;11.26;69.12
68439;SHT31;55421;51.600;5.718;2023-05-19T05:17:11;11.25;69.10
68439;SHT31;55421;51.600;5.718;2023-05-19T05:19:38;11.25;69.26
68439;SHT31;55421;51.600;5.718;2023-05-19T05:22:06;11.28;69.28
68439;SHT31;55421;51.600;5.718;2023-05-19T05:24:33;11.32;69.24
68439;SHT31;55421;51.600;5.718;2023-05-19T05:27:00;11.36;69.25
68439;SHT31;55421;51.600;5.718;2023-05-19T05:29:26;11.43;69.34
68439;SHT31;55421;51.600;5.718;2023-05-19T05:31:53;11.52;69.31
68439;SHT31;55421;51.600;5.718;2023-05-19T05:34:19;11.65;69.28
68439;SHT31;55421;51.600;5.718;2023-05-19T05:36:46;11.75;69.09
68439;SHT31;55421;51.600;5.718;2023-05-19T05:39:13;11.83;68.80
68439;SHT31;55421;51.600;5.718;2023-05-19T05:41:39;11.87;68.55
68439;SHT31;55421;51.600;5.718;2023-05-19T05:44:05;11.92;68.59
68439;SHT31;55421;51.600;5.718;2023-05-19T05:46:32;11.98;68.47
68439;SHT31;55421;51.600;5.718;2023-05-19T05:48:59;12.01;68.30
68439;SHT31;55421;51.600;5.718;2023-05-19T05:51:26;12.11;68.27
68439;SHT31;55421;51.600;5.718;2023-05-19T05:53:53;12.22;68.16
68439;SHT31;55421;51.600;5.718;2023-05-19T05:56:21;12.33;68.06
68439;SHT31;55421;51.600;5.718;2023-05-19T05:58:47;12.43;67.72
68439;SHT31;55421;51.600;5.718;2023-05-19T06:01:14;12.50;67.49
68439;SHT31;55421;51.600;5.718;2023-05-19T06:03:42;12.59;67.46
68439;SHT31;55421;51.600;5.718;2023-05-19T06:06:12;12.66;67.06
68439;SHT31;55421;51.600;5.718;2023-05-19T06:08:39;12.71;66.82
68439;SHT31;55421;51.600;5.718;2023-05-19T06:11:05;12.76;66.66
68439;SHT31;55421;51.600;5.718;2023-05-19T06:13:34;12.77;66.40
68439;SHT31;55421;51.600;5.718;2023-05-19T06:16:01;12.72;66.22
68439;SHT31;55421;51.600;5.718;2023-05-19T06:18:28;12.69;66.25
68439;SHT31;55421;51.600;5.718;2023-05-19T06:20:55;12.70;66.36
68439;SHT31;55421;51.600;5.718;2023-05-19T06:23:22;12.72;66.31
68439;SHT31;55421;51.600;5.718;2023-05-19T06:25:49;12.76;66.19
68439;SHT31;55421;51.600;5.718;2023-05-19T06:28:15;12.78;66.03
68439;SHT31;55421;51.600;5.718;2023-05-19T06:30:42;12.89;66.13
68439;SHT31;55421;51.600;5.718;2023-05-19T06:33:08;13.04;66.09
68439;SHT31;55421;51.600;5.718;2023-05-19T06:35:35;13.19;65.90
68439;SHT31;55421;51.600;5.718;2023-05-19T06:38:02;13.27;65.64
68439;SHT31;55421;51.600;5.718;2023-05-19T06:40:29;13.29;65.46
68439;SHT31;55421;51.600;5.718;2023-05-19T06:42:55;13.29;65.35
68439;SHT31;55421;51.600;5.718;2023-05-19T06:45:22;13.27;65.26
68439;SHT31;55421;51.600;5.718;2023-05-19T06:47:49;13.30;65.25
68439;SHT31;55421;51.600;5.718;2023-05-19T06:50:15;13.35;64.98
68439;SHT31;55421;51.600;5.718;2023-05-19T06:52:42;13.38;64.92
68439;SHT31;55421;51.600;5.718;2023-05-19T06:55:09;13.49;64.94
68439;SHT31;55421;51.600;5.718;2023-05-19T06:57:35;13.60;64.62
68439;SHT31;55421;51.600;5.718;2023-05-19T07:00:02;13.66;64.47
68439;SHT31;55421;51.600;5.718;2023-05-19T07:02:30;13.72;64.30
68439;SHT31;55421;51.600;5.718;2023-05-19T07:04:57;13.80;64.13
68439;SHT31;55421;51.600;5.718;2023-05-19T07:07:23;13.85;64.03
68439;SHT31;55421;51.600;5.718;2023-05-19T07:09:50;13.88;64.09
68439;SHT31;55421;51.600;5.718;2023-05-19T07:12:16;13.92;64.05
68439;SHT31;55421;51.600;5.718;2023-05-19T07:14:43;14.00;63.95
68439;SHT31;55421;51.600;5.718;2023-05-19T07:17:09;14.10;63.71
68439;SHT31;55421;51.600;5.718;2023-05-19T07:19:36;14.21;63.45
68439;SHT31;55421;51.600;5.718;2023-05-19T07:22:02;14.35;63.33
68439;SHT31;55421;51.600;5.718;2023-05-19T07:24:29;14.52;63.01
68439;SHT31;55421;51.600;5.718;2023-05-19T07:26:56;14.70;62.60
68439;SHT31;55421;51.600;5.718;2023-05-19T07:29:23;14.84;62.14
68439;SHT31;55421;51.600;5.718;2023-05-19T07:31:50;14.96;61.58
68439;SHT31;55421;51.600;5.718;2023-05-19T07:34:23;15.11;61.33
68439;SHT31;55421;51.600;5.718;2023-05-19T07:36:50;15.18;60.98
68439;SHT31;55421;51.600;5.718;2023-05-19T07:39:17;15.22;60.86
68439;SHT31;55421;51.600;5.718;2023-05-19T07:41:44;15.24;60.73
68439;SHT31;55421;51.600;5.718;2023-05-19T07:44:10;15.24;60.57
68439;SHT31;55421;51.600;5.718;2023-05-19T07:46:37;15.31;60.26
68439;SHT31;55421;51.600;5.718;2023-05-19T07:49:04;15.43;60.12
68439;SHT31;55421;51.600;5.718;2023-05-19T07:51:30;15.56;59.77
68439;SHT31;55421;51.600;5.718;2023-05-19T07:53:57;15.67;59.44
68439;SHT31;55421;51.600;5.718;2023-05-19T07:56:23;15.79;59.14
68439;SHT31;55421;51.600;5.718;2023-05-19T07:58:50;15.90;59.08
68439;SHT31;55421;51.600;5.718;2023-05-19T08:01:16;16.01;58.93
68439;SHT31;55421;51.600;5.718;2023-05-19T08:03:43;16.11;58.21
68439;SHT31;55421;51.600;5.718;2023-05-19T08:06:09;16.21;58.00
68439;SHT31;55421;51.600;5.718;2023-05-19T08:08:36;16.29;57.73
68439;SHT31;55421;51.600;5.718;2023-05-19T08:11:03;16.32;57.51
68439;SHT31;55421;51.600;5.718;2023-05-19T08:13:30;16.38;57.23
68439;SHT31;55421;51.600;5.718;2023-05-19T08:15:56;16.49;57.18
68439;SHT31;55421;51.600;5.718;2023-05-19T08:18:25;16.60;56.89
68439;SHT31;55421;51.600;5.718;2023-05-19T08:20:51;16.73;56.85
68439;SHT31;55421;51.600;5.718;2023-05-19T08:23:18;16.83;56.30
68439;SHT31;55421;51.600;5.718;2023-05-19T08:25:44;16.92;55.97
68439;SHT31;55421;51.600;5.718;2023-05-19T08:28:11;17.00;55.51
68439;SHT31;55421;51.600;5.718;2023-05-19T08:30:38;17.11;55.11
68439;SHT31;55421;51.600;5.718;2023-05-19T08:33:04;17.23;54.96
68439;SHT31;55421;51.600;5.718;2023-05-19T08:35:31;17.34;54.40
68439;SHT31;55421;51.600;5.718;2023-05-19T08:37:57;17.45;54.02
68439;SHT31;55421;51.600;5.718;2023-05-19T08:40:24;17.53;53.68
68439;SHT31;55421;51.600;5.718;2023-05-19T08:42:52;17.64;53.80
68439;SHT31;55421;51.600;5.718;2023-05-19T08:45:19;17.73;53.20
68439;SHT31;55421;51.600;5.718;2023-05-19T08:47:46;17.79;52.58
68439;SHT31;55421;51.600;5.718;2023-05-19T08:50:16;17.84;52.19
68439;SHT31;55421;51.600;5.718;2023-05-19T08:52:52;17.90;51.68
68439;SHT31;55421;51.600;5.718;2023-05-19T08:55:35;17.99;51.44
68439;SHT31;55421;51.600;5.718;2023-05-19T08:58:10;18.10;51.26
68439;SHT31;55421;51.600;5.718;2023-05-19T09:00:38;18.06;49.89
68439;SHT31;55421;51.600;5.718;2023-05-19T09:03:05;18.03;49.31
68439;SHT31;55421;51.600;5.718;2023-05-19T09:05:32;18.09;49.32
68439;SHT31;55421;51.600;5.718;2023-05-19T09:07:59;18.22;49.47
68439;SHT31;55421;51.600;5.718;2023-05-19T09:10:27;18.33;49.28
68439;SHT31;55421;51.600;5.718;2023-05-19T09:12:54;18.41;48.63
68439;SHT31;55421;51.600;5.718;2023-05-19T09:15:20;18.46;47.17
68439;SHT31;55421;51.600;5.718;2023-05-19T09:18:08;18.29;46.64
68439;SHT31;55421;51.600;5.718;2023-05-19T09:20:38;18.27;46.87
68439;SHT31;55421;51.600;5.718;2023-05-19T09:23:06;18.33;47.20
68439;SHT31;55421;51.600;5.718;2023-05-19T09:28:36;18.61;47.29
68439;SHT31;55421;51.600;5.718;2023-05-19T09:31:03;18.48;47.35
68439;SHT31;55421;51.600;5.718;2023-05-19T09:33:33;18.36;46.89
68439;SHT31;55421;51.600;5.718;2023-05-19T09:36:02;18.46;46.93
68439;SHT31;55421;51.600;5.718;2023-05-19T09:38:37;18.49;47.50
68439;SHT31;55421;51.600;5.718;2023-05-19T09:41:05;18.39;47.41
68439;SHT31;55421;51.600;5.718;2023-05-19T09:43:34;18.35;47.85
68439;SHT31;55421;51.600;5.718;2023-05-19T09:46:08;18.55;47.84
68439;SHT31;55421;51.600;5.718;2023-05-19T09:48:38;18.76;46.73
68439;SHT31;55421;51.600;5.718;2023-05-19T09:51:06;18.92;45.27
68439;SHT31;55421;51.600;5.718;2023-05-19T09:53:35;19.02;44.47
68439;SHT31;55421;51.600;5.718;2023-05-19T09:56:01;19.14;44.20
68439;SHT31;55421;51.600;5.718;2023-05-19T09:58:32;19.22;43.61
68439;SHT31;55421;51.600;5.718;2023-05-19T10:01:02;19.30;43.72
68439;SHT31;55421;51.600;5.718;2023-05-19T10:03:30;19.41;43.88
68439;SHT31;55421;51.600;5.718;2023-05-19T10:06:00;19.54;43.54
68439;SHT31;55421;51.600;5.718;2023-05-19T10:08:27;19.52;43.11
68439;SHT31;55421;51.600;5.718;2023-05-19T10:10:55;19.48;42.94
68439;SHT31;55421;51.600;5.718;2023-05-19T10:13:22;19.39;43.00
68439;SHT31;55421;51.600;5.718;2023-05-19T10:15:50;19.36;43.01
68439;SHT31;55421;51.600;5.718;2023-05-19T10:18:18;19.35;42.82
68439;SHT31;55421;51.600;5.718;2023-05-19T10:20:47;19.35;43.16
68439;SHT31;55421;51.600;5.718;2023-05-19T10:23:15;19.42;42.67
68439;SHT31;55421;51.600;5.718;2023-05-19T10:25:42;19.48;42.25
68439;SHT31;55421;51.600;5.718;2023-05-19T10:28:13;19.58;41.53
68439;SHT31;55421;51.600;5.718;2023-05-19T10:30:43;19.67;41.36
68439;SHT31;55421;51.600;5.718;2023-05-19T10:33:15;19.72;41.81
68439;SHT31;55421;51.600;5.718;2023-05-19T10:38:55;19.89;41.92
68439;SHT31;55421;51.600;5.718;2023-05-19T10:41:49;19.92;40.59
68439;SHT31;55421;51.600;5.718;2023-05-19T10:47:28;20.08;41.85
68439;SHT31;55421;51.600;5.718;2023-05-19T10:49:54;20.21;41.80
68439;SHT31;55421;51.600;5.718;2023-05-19T10:52:22;20.27;40.90
68439;SHT31;55421;51.600;5.718;2023-05-19T10:54:54;20.32;40.73
68439;SHT31;55421;51.600;5.718;2023-05-19T10:57:24;20.37;40.63
68439;SHT31;55421;51.600;5.718;2023-05-19T10:59:54;20.39;40.58
68439;SHT31;55421;51.600;5.718;2023-05-19T11:05:12;20.38;41.04
68439;SHT31;55421;51.600;5.718;2023-05-19T11:07:43;20.33;41.46
68439;SHT31;55421;51.600;5.718;2023-05-19T11:10:22;20.35;41.47
68439;SHT31;55421;51.600;5.718;2023-05-19T11:12:49;20.31;41.24
68439;SHT31;55421;51.600;5.718;2023-05-19T11:15:17;20.20;41.18
68439;SHT31;55421;51.600;5.718;2023-05-19T11:17:47;20.24;41.46
68439;SHT31;55421;51.600;5.718;2023-05-19T11:20:21;20.37;41.21
68439;SHT31;55421;51.600;5.718;2023-05-19T11:23:00;20.49;40.80
68439;SHT31;55421;51.600;5.718;2023-05-19T11:25:40;20.54;40.56
68439;SHT31;55421;51.600;5.718;2023-05-19T11:28:09;20.63;40.68
68439;SHT31;55421;51.600;5.718;2023-05-19T11:30:43;20.81;40.90
68439;SHT31;55421;51.600;5.718;2023-05-19T11:33:14;20.95;40.48
68439;SHT31;55421;51.600;5.718;2023-05-19T11:35:44;20.93;40.34
68439;SHT31;55421;51.600;5.718;2023-05-19T11:38:14;20.90;40.01
68439;SHT31;55421;51.600;5.718;2023-05-19T11:40:43;20.89;39.20
68439;SHT31;55421;51.600;5.718;2023-05-19T11:43:10;20.83;39.40
68439;SHT31;55421;51.600;5.718;2023-05-19T11:45:36;20.87;39.32
68439;SHT31;55421;51.600;5.718;2023-05-19T11:48:04;20.96;39.58
68439;SHT31;55421;51.600;5.718;2023-05-19T11:50:31;21.11;39.74
68439;SHT31;55421;51.600;5.718;2023-05-19T11:52:58;21.30;39.80
68439;SHT31;55421;51.600;5.718;2023-05-19T11:55:26;21.33;39.63
68439;SHT31;55421;51.600;5.718;2023-05-19T11:57:59;21.34;39.84
68439;SHT31;55421;51.600;5.718;2023-05-19T12:00:28;21.43;39.42
68439;SHT31;55421;51.600;5.718;2023-05-19T12:03:04;21.46;39.08
68439;SHT31;55421;51.600;5.718;2023-05-19T12:05:31;21.40;39.12
68439;SHT31;55421;51.600;5.718;2023-05-19T12:08:02;21.24;39.20
68439;SHT31;55421;51.600;5.718;2023-05-19T12:10:29;21.19;38.76
68439;SHT31;55421;51.600;5.718;2023-05-19T12:12:58;21.13;38.54
68439;SHT31;55421;51.600;5.718;2023-05-19T12:15:27;21.09;39.56
68439;SHT31;55421;51.600;5.718;2023-05-19T12:17:57;21.18;39.64
68439;SHT31;55421;51.600;5.718;2023-05-19T12:20:26;21.20;39.06
68439;SHT31;55421;51.600;5.718;2023-05-19T12:22:57;21.19;38.96
68439;SHT31;55421;51.600;5.718;2023-05-19T12:25:25;21.23;38.95
68439;SHT31;55421;51.600;5.718;2023-05-19T12:27:56;21.23;38.69
68439;SHT31;55421;51.600;5.718;2023-05-19T12:30:27;21.27;38.63
68439;SHT31;55421;51.600;5.718;2023-05-19T12:32:55;21.32;38.43
68439;SHT31;55421;51.600;5.718;2023-05-19T12:35:29;21.29;37.87
68439;SHT31;55421;51.600;5.718;2023-05-19T12:38:05;21.31;38.17
68439;SHT31;55421;51.600;5.718;2023-05-19T12:40:32;21.33;38.19
68439;SHT31;55421;51.600;5.718;2023-05-19T12:43:00;21.36;38.09
68439;SHT31;55421;51.600;5.718;2023-05-19T12:45:26;21.40;38.32
68439;SHT31;55421;51.600;5.718;2023-05-19T12:47:53;21.48;38.67
68439;SHT31;55421;51.600;5.718;2023-05-19T12:50:21;21.56;38.94
68439;SHT31;55421;51.600;5.718;2023-05-19T12:52:54;21.52;38.73
68439;SHT31;55421;51.600;5.718;2023-05-19T12:55:21;21.42;38.63
68439;SHT31;55421;51.600;5.718;2023-05-19T12:57:49;21.33;38.39
68439;SHT31;55421;51.600;5.718;2023-05-19T13:00:22;21.26;38.74
68439;SHT31;55421;51.600;5.718;2023-05-19T13:03:03;21.17;38.93
68439;SHT31;55421;51.600;5.718;2023-05-19T13:05:38;21.12;38.82
68439;SHT31;55421;51.600;5.718;2023-05-19T13:08:09;21.17;39.24
68439;SHT31;55421;51.600;5.718;2023-05-19T13:10:40;21.23;39.18
68439;SHT31;55421;51.600;5.718;2023-05-19T13:13:09;21.23;38.86
68439;SHT31;55421;51.600;5.718;2023-05-19T13:15:37;21.18;39.12
68439;SHT31;55421;51.600;5.718;2023-05-19T13:18:08;21.13;39.26
68439;SHT31;55421;51.600;5.718;2023-05-19T13:20:37;20.99;38.80
68439;SHT31;55421;51.600;5.718;2023-05-19T13:23:05;20.86;38.90
68439;SHT31;55421;51.600;5.718;2023-05-19T13:25:32;20.80;38.96
68439;SHT31;55421;51.600;5.718;2023-05-19T13:27:59;20.79;39.22
68439;SHT31;55421;51.600;5.718;2023-05-19T13:30:31;20.80;39.07
68439;SHT31;55421;51.600;5.718;2023-05-19T13:32:59;20.84;38.80
68439;SHT31;55421;51.600;5.718;2023-05-19T13:35:25;20.88;38.91
68439;SHT31;55421;51.600;5.718;2023-05-19T13:37:52;20.97;39.14
68439;SHT31;55421;51.600;5.718;2023-05-19T13:40:19;21.02;39.58
68439;SHT31;55421;51.600;5.718;2023-05-19T13:42:46;20.94;38.99
68439;SHT31;55421;51.600;5.718;2023-05-19T13:45:12;20.87;39.38
68439;SHT31;55421;51.600;5.718;2023-05-19T13:47:39;20.85;39.43
68439;SHT31;55421;51.600;5.718;2023-05-19T13:50:05;20.85;39.78
68439;SHT31;55421;51.600;5.718;2023-05-19T13:52:32;20.91;39.69
68439;SHT31;55421;51.600;5.718;2023-05-19T13:54:59;20.88;39.52
68439;SHT31;55421;51.600;5.718;2023-05-19T13:57:25;20.90;39.76
68439;SHT31;55421;51.600;5.718;2023-05-19T13:59:52;20.91;39.71
68439;SHT31;55421;51.600;5.718;2023-05-19T14:02:20;20.82;39.65
68439;SHT31;55421;51.600;5.718;2023-05-19T14:04:46;20.76;39.26
68439;SHT31;55421;51.600;5.718;2023-05-19T14:07:13;20.67;39.42
68439;SHT31;55421;51.600;5.718;2023-05-19T14:09:41;20.63;39.41
68439;SHT31;55421;51.600;5.718;2023-05-19T14:12:08;20.64;39.77
68439;SHT31;55421;51.600;5.718;2023-05-19T14:14:37;20.62;40.21
68439;SHT31;55421;51.600;5.718;2023-05-19T14:17:03;20.64;39.91
68439;SHT31;55421;51.600;5.718;2023-05-19T14:19:30;20.67;39.80
68439;SHT31;55421;51.600;5.718;2023-05-19T14:21:56;20.67;39.72
68439;SHT31;55421;51.600;5.718;2023-05-19T14:24:23;20.65;39.78
68439;SHT31;55421;51.600;5.718;2023-05-19T14:26:50;20.67;39.58
68439;SHT31;55421;51.600;5.718;2023-05-19T14:29:17;20.72;39.73
68439;SHT31;55421;51.600;5.718;2023-05-19T14:31:44;20.79;40.00
68439;SHT31;55421;51.600;5.718;2023-05-19T14:34:10;20.80;39.49
68439;SHT31;55421;51.600;5.718;2023-05-19T14:36:37;20.73;39.52
68439;SHT31;55421;51.600;5.718;2023-05-19T14:39:03;20.65;39.52
68439;SHT31;55421;51.600;5.718;2023-05-19T14:41:30;20.58;39.46
68439;SHT31;55421;51.600;5.718;2023-05-19T14:43:56;20.64;39.82
68439;SHT31;55421;51.600;5.718;2023-05-19T14:46:23;20.69;39.76
68439;SHT31;55421;51.600;5.718;2023-05-19T14:48:49;20.67;39.26
68439;SHT31;55421;51.600;5.718;2023-05-19T14:51:16;20.58;39.81
68439;SHT31;55421;51.600;5.718;2023-05-19T14:53:42;20.52;39.61
68439;SHT31;55421;51.600;5.718;2023-05-19T14:56:09;20.47;40.16
68439;SHT31;55421;51.600;5.718;2023-05-19T14:58:35;20.47;40.42
68439;SHT31;55421;51.600;5.718;2023-05-19T15:01:02;20.51;40.67
68439;SHT31;55421;51.600;5.718;2023-05-19T15:03:29;20.55;40.24
68439;SHT31;55421;51.600;5.718;2023-05-19T15:05:55;20.56;40.09
68439;SHT31;55421;51.600;5.718;2023-05-19T15:08:22;20.55;39.78
68439;SHT31;55421;51.600;5.718;2023-05-19T15:10:48;20.53;39.51
68439;SHT31;55421;51.600;5.718;2023-05-19T15:13:15;20.55;39.60
68439;SHT31;55421;51.600;5.718;2023-05-19T15:15:44;20.57;39.63
68439;SHT31;55421;51.600;5.718;2023-05-19T15:18:11;20.56;39.58
68439;SHT31;55421;51.600;5.718;2023-05-19T15:20:38;20.51;39.82
68439;SHT31;55421;51.600;5.718;2023-05-19T15:23:04;20.52;40.21
68439;SHT31;55421;51.600;5.718;2023-05-19T15:25:31;20.48;39.73
68439;SHT31;55421;51.600;5.718;2023-05-19T15:27:57;20.38;39.43
68439;SHT31;55421;51.600;5.718;2023-05-19T15:30:24;20.34;39.45
68439;SHT31;55421;51.600;5.718;2023-05-19T15:32:51;20.34;39.30
68439;SHT31;55421;51.600;5.718;2023-05-19T15:35:17;20.37;39.36
68439;SHT31;55421;51.600;5.718;2023-05-19T15:37:44;20.40;39.21
68439;SHT31;55421;51.600;5.718;2023-05-19T15:40:10;20.44;39.47
68439;SHT31;55421;51.600;5.718;2023-05-19T15:42:38;20.48;39.81
68439;SHT31;55421;51.600;5.718;2023-05-19T15:45:04;20.45;39.33
68439;SHT31;55421;51.600;5.718;2023-05-19T15:47:33;20.40;39.54
68439;SHT31;55421;51.600;5.718;2023-05-19T15:49:59;20.33;39.46
68439;SHT31;55421;51.600;5.718;2023-05-19T15:52:26;20.31;39.89
68439;SHT31;55421;51.600;5.718;2023-05-19T15:54:52;20.32;39.66
68439;SHT31;55421;51.600;5.718;2023-05-19T15:57:20;20.31;39.42
68439;SHT31;55421;51.600;5.718;2023-05-19T15:59:46;20.30;39.40
68439;SHT31;55421;51.600;5.718;2023-05-19T16:02:13;20.31;39.42
68439;SHT31;55421;51.600;5.718;2023-05-19T16:04:39;20.31;39.47
68439;SHT31;55421;51.600;5.718;2023-05-19T16:07:06;20.33;39.25